createdAt,value
2023-05-22T00:01:56.806Z,16.51
2023-05-22T00:04:23.770Z,16.45
2023-05-22T00:06:50.657Z,16.40
2023-05-22T00:09:18.085Z,16.46
2023-05-22T00:11:45.093Z,16.45
2023-05-22T00:14:13.686Z,16.45
2023-05-22T00:16:41.181Z,16.26
2023-05-22T00:19:13.299Z,16.27
2023-05-22T00:21:40.618Z,16.30
2023-05-22T00:24:08.034Z,16.25
2023-05-22T00:26:34.918Z,16.24
2023-05-22T00:29:02.022Z,16.25
2023-05-22T00:31:28.857Z,16.19
2023-05-22T00:33:55.828Z,16.18
2023-05-22T00:36:22.891Z,16.11
2023-05-22T00:38:49.708Z,16.13
2023-05-22T00:41:16.504Z,16.11
2023-05-22T00:43:45.108Z,16.14
2023-05-22T00:46:12.681Z,16.06
2023-05-22T00:48:39.637Z,15.99
2023-05-22T00:51:08.000Z,15.93
2023-05-22T00:53:34.937Z,16.02
2023-05-22T00:56:01.856Z,16.02
2023-05-22T00:58:28.626Z,15.98
2023-05-22T01:00:56.367Z,15.97
2023-05-22T01:03:27.071Z,15.93
2023-05-22T01:05:54.884Z,15.88
2023-05-22T01:08:21.960Z,15.83
2023-05-22T01:10:54.348Z,15.80
2023-05-22T01:13:41.381Z,15.71
2023-05-22T01:16:36.173Z,15.67
2023-05-22T01:19:23.640Z,15.58
2023-05-22T01:22:05.900Z,15.42
2023-05-22T01:24:44.681Z,15.42
2023-05-22T01:27:52.823Z,15.43
2023-05-22T01:30:28.038Z,15.37
2023-05-22T01:32:58.100Z,15.34
2023-05-22T01:35:26.189Z,15.33
2023-05-22T01:37:54.642Z,15.24
2023-05-22T01:40:21.505Z,15.25
2023-05-22T01:42:48.415Z,15.28
2023-05-22T01:45:15.243Z,15.28
2023-05-22T01:47:42.084Z,15.15
2023-05-22T01:50:09.433Z,15.10
2023-05-22T01:53:06.501Z,14.99
2023-05-22T01:55:40.491Z,14.91
2023-05-22T01:58:44.068Z,14.91
2023-05-22T02:01:13.244Z,14.85
2023-05-22T02:03:41.683Z,14.85
2023-05-22T02:06:13.192Z,14.86
2023-05-22T02:08:41.817Z,14.78
2023-05-22T02:11:11.223Z,14.70
2023-05-22T02:13:38.112Z,14.68
2023-05-22T02:16:05.636Z,14.72
2023-05-22T02:18:32.407Z,14.66
2023-05-22T02:21:00.001Z,14.54
2023-05-22T02:23:29.719Z,14.45
2023-05-22T02:25:57.027Z,14.41
2023-05-22T02:28:24.392Z,14.37
2023-05-22T02:30:51.263Z,14.36
2023-05-22T02:33:18.585Z,14.35
2023-05-22T02:35:46.121Z,14.32
2023-05-22T02:38:12.996Z,14.24
2023-05-22T02:40:40.471Z,14.24
2023-05-22T02:43:07.445Z,14.13
2023-05-22T02:45:34.303Z,14.13
2023-05-22T02:48:03.560Z,14.09
2023-05-22T02:50:30.604Z,14.06
2023-05-22T02:52:57.383Z,14.05
2023-05-22T02:55:24.162Z,13.98
2023-05-22T02:57:51.005Z,13.91
2023-05-22T03:00:18.352Z,13.90
2023-05-22T03:02:45.164Z,14.03
2023-05-22T03:05:12.054Z,13.93
2023-05-22T03:07:38.757Z,13.98
2023-05-22T03:10:06.039Z,13.99
2023-05-22T03:12:32.969Z,14.04
2023-05-22T03:14:59.705Z,13.91
2023-05-22T03:17:26.605Z,13.96
2023-05-22T03:19:53.398Z,14.00
2023-05-22T03:22:20.347Z,13.99
2023-05-22T03:24:47.203Z,14.17
2023-05-22T03:27:17.025Z,14.21
2023-05-22T03:29:43.831Z,14.23
2023-05-22T03:32:10.916Z,14.30
2023-05-22T03:34:37.735Z,14.34
2023-05-22T03:37:04.621Z,14.40
2023-05-22T03:39:31.430Z,14.37
2023-05-22T03:41:58.228Z,14.44
2023-05-22T03:44:24.972Z,14.42
2023-05-22T03:46:52.155Z,14.40
2023-05-22T03:49:18.992Z,14.54
2023-05-22T03:51:45.822Z,14.58
2023-05-22T03:54:12.562Z,14.53
2023-05-22T03:56:39.512Z,14.54
2023-05-22T03:59:06.263Z,14.58
2023-05-22T04:01:33.149Z,14.59
2023-05-22T04:04:00.021Z,14.67
2023-05-22T04:06:26.971Z,14.62
2023-05-22T04:08:53.741Z,14.74
2023-05-22T04:11:20.986Z,14.77
2023-05-22T04:13:49.494Z,14.73
2023-05-22T04:16:17.505Z,14.84
2023-05-22T04:18:44.729Z,14.92
2023-05-22T04:21:12.784Z,14.93
2023-05-22T04:23:43.212Z,14.98
2023-05-22T04:26:10.433Z,15.03
2023-05-22T04:28:37.966Z,15.12
2023-05-22T04:31:06.584Z,15.15
2023-05-22T04:33:34.573Z,15.26
2023-05-22T04:36:02.320Z,15.36
2023-05-22T04:38:29.221Z,15.37
2023-05-22T04:40:56.707Z,15.51
2023-05-22T04:43:26.571Z,15.62
2023-05-22T04:45:54.807Z,15.78
2023-05-22T04:48:22.478Z,15.89
2023-05-22T04:50:49.917Z,16.01
2023-05-22T04:53:16.733Z,16.04
2023-05-22T04:55:44.156Z,16.12
2023-05-22T04:58:10.986Z,16.16
2023-05-22T05:00:38.130Z,16.34
2023-05-22T05:03:08.069Z,16.50
2023-05-22T05:05:35.171Z,16.62
2023-05-22T05:08:01.976Z,16.74
2023-05-22T05:10:28.793Z,16.72
2023-05-22T05:12:55.652Z,17.05
2023-05-22T05:15:23.739Z,17.18
2023-05-22T05:17:51.144Z,17.36
2023-05-22T05:20:18.074Z,17.38
2023-05-22T05:22:46.147Z,17.47
2023-05-22T05:25:13.434Z,17.52
2023-05-22T05:27:40.395Z,17.65
2023-05-22T05:30:07.782Z,17.99
2023-05-22T05:32:34.636Z,18.18
2023-05-22T05:35:01.786Z,18.20
2023-05-22T05:37:28.611Z,18.34
2023-05-22T05:39:55.372Z,18.32
2023-05-22T05:42:22.199Z,18.47
2023-05-22T05:44:49.097Z,18.54
2023-05-22T05:47:17.474Z,18.68
2023-05-22T05:49:44.316Z,18.84
2023-05-22T05:52:11.047Z,18.89
2023-05-22T05:54:37.887Z,18.99
2023-05-22T05:57:06.533Z,18.91
2023-05-22T05:59:33.300Z,18.98
2023-05-22T06:02:00.163Z,19.03
2023-05-22T06:04:28.188Z,19.18
2023-05-22T06:06:55.154Z,19.03
2023-05-22T06:09:22.316Z,19.07
2023-05-22T06:11:49.133Z,19.29
2023-05-22T06:14:15.901Z,19.24
2023-05-22T06:16:42.804Z,19.41
2023-05-22T06:19:09.595Z,19.63
2023-05-22T06:21:36.443Z,19.62
2023-05-22T06:24:03.420Z,19.62
2023-05-22T06:26:30.604Z,19.87
2023-05-22T06:28:57.490Z,19.88
2023-05-22T06:31:24.639Z,19.84
2023-05-22T06:33:52.119Z,20.24
2023-05-22T06:36:19.168Z,20.19
2023-05-22T06:38:49.689Z,20.42
2023-05-22T06:41:16.588Z,20.45
2023-05-22T06:43:43.338Z,20.72
2023-05-22T06:46:10.267Z,20.83
2023-05-22T06:48:37.212Z,20.94
2023-05-22T06:51:04.407Z,21.08
2023-05-22T06:53:31.211Z,21.09
2023-05-22T06:55:57.978Z,21.27
2023-05-22T06:58:24.771Z,21.38
2023-05-22T07:00:51.870Z,21.36
2023-05-22T07:03:18.628Z,21.82
2023-05-22T07:05:45.639Z,22.05
2023-05-22T07:08:12.766Z,22.02
2023-05-22T07:10:39.605Z,22.28
2023-05-22T07:13:06.601Z,22.23
2023-05-22T07:15:33.323Z,22.62
2023-05-22T07:18:00.194Z,23.12
2023-05-22T07:20:27.151Z,23.60
2023-05-22T07:22:54.048Z,23.75
2023-05-22T07:25:20.783Z,23.74
2023-05-22T07:27:47.514Z,23.83
2023-05-22T07:30:14.435Z,24.18
2023-05-22T07:32:41.437Z,24.43
2023-05-22T07:35:10.675Z,24.41
2023-05-22T07:37:37.935Z,24.53
2023-05-22T07:40:09.689Z,24.55
2023-05-22T07:42:36.620Z,24.43
2023-05-22T07:45:03.716Z,24.57
2023-05-22T07:47:30.682Z,24.80
2023-05-22T07:49:57.584Z,24.62
2023-05-22T07:52:24.398Z,24.55
2023-05-22T07:54:51.245Z,24.69
2023-05-22T07:57:18.054Z,24.31
2023-05-22T07:59:45.422Z,24.36
2023-05-22T08:02:12.418Z,24.28
2023-05-22T08:04:39.736Z,24.45
2023-05-22T08:07:07.013Z,24.18
2023-05-22T08:09:34.791Z,24.05
2023-05-22T08:12:01.685Z,24.16
2023-05-22T08:14:28.949Z,24.18
2023-05-22T08:16:56.998Z,24.03
2023-05-22T08:19:24.034Z,23.98
2023-05-22T08:21:52.936Z,24.25
2023-05-22T08:24:19.828Z,24.09
2023-05-22T08:26:46.644Z,24.03
2023-05-22T08:29:13.569Z,24.11
2023-05-22T08:31:40.433Z,24.39
2023-05-22T08:34:07.469Z,24.29
2023-05-22T08:36:34.480Z,24.31
2023-05-22T08:39:01.896Z,24.53
2023-05-22T08:41:29.618Z,24.44
2023-05-22T08:43:56.570Z,24.47
2023-05-22T08:46:26.353Z,24.69
2023-05-22T08:48:56.911Z,25.27
2023-05-22T08:51:28.608Z,24.98
2023-05-22T08:53:57.281Z,25.10
2023-05-22T08:56:26.065Z,25.38
2023-05-22T08:58:54.983Z,25.33
2023-05-22T09:01:22.982Z,25.53
2023-05-22T09:03:51.361Z,25.87
2023-05-22T09:06:18.620Z,26.26
2023-05-22T09:08:46.050Z,26.63
2023-05-22T09:11:13.283Z,26.61
2023-05-22T09:13:41.372Z,26.55
2023-05-22T09:16:12.306Z,26.65
2023-05-22T09:18:39.800Z,26.92
2023-05-22T09:21:17.737Z,26.49
2023-05-22T09:23:53.985Z,26.89
2023-05-22T09:26:21.499Z,27.11
2023-05-22T09:28:48.332Z,26.98
2023-05-22T09:31:15.285Z,27.28
2023-05-22T09:33:44.248Z,27.47
2023-05-22T09:36:11.675Z,27.72
2023-05-22T09:38:39.848Z,27.90
2023-05-22T09:41:06.684Z,27.81
2023-05-22T09:43:33.917Z,27.98
2023-05-22T09:46:02.343Z,28.17
2023-05-22T09:48:29.334Z,27.86
2023-05-22T09:51:00.081Z,28.38
2023-05-22T09:53:30.393Z,28.33
2023-05-22T09:56:00.110Z,28.68
2023-05-22T09:58:30.849Z,27.96
2023-05-22T10:00:59.255Z,28.82
2023-05-22T10:03:27.047Z,28.71
2023-05-22T10:05:56.245Z,29.27
2023-05-22T10:08:28.970Z,28.11
2023-05-22T10:10:56.201Z,28.82
2023-05-22T10:13:24.268Z,28.50
2023-05-22T10:15:51.548Z,28.95
2023-05-22T10:18:18.746Z,28.31
2023-05-22T10:20:48.987Z,29.06
2023-05-22T10:23:17.087Z,28.99
2023-05-22T10:25:45.658Z,29.14
2023-05-22T10:28:19.577Z,29.47
2023-05-22T10:31:06.612Z,29.45
2023-05-22T10:33:44.814Z,28.78
2023-05-22T10:36:27.459Z,29.46
2023-05-22T10:38:57.715Z,29.67
2023-05-22T10:41:25.986Z,29.54
2023-05-22T10:43:56.677Z,29.48
2023-05-22T10:46:23.605Z,29.91
2023-05-22T10:48:53.573Z,29.39
2023-05-22T10:51:22.069Z,29.33
2023-05-22T10:54:07.437Z,29.73
2023-05-22T10:56:35.637Z,30.17
2023-05-22T10:59:05.398Z,29.45
2023-05-22T11:01:37.591Z,30.08
2023-05-22T11:04:05.098Z,29.13
2023-05-22T11:06:42.169Z,29.75
2023-05-22T11:09:27.089Z,30.21
2023-05-22T11:12:24.992Z,30.00
2023-05-22T11:14:57.255Z,29.48
2023-05-22T11:17:29.265Z,29.88
2023-05-22T11:20:06.627Z,30.15
2023-05-22T11:22:56.908Z,30.62
2023-05-22T11:25:24.956Z,30.66
2023-05-22T11:27:53.730Z,31.19
2023-05-22T11:30:24.674Z,30.38
2023-05-22T11:32:51.554Z,30.97
2023-05-22T11:35:19.899Z,30.74
2023-05-22T11:37:47.597Z,30.79
2023-05-22T11:40:16.732Z,30.85
2023-05-22T11:42:44.333Z,31.07
2023-05-22T11:45:11.637Z,30.66
2023-05-22T11:47:39.220Z,30.40
2023-05-22T11:50:09.391Z,30.02
2023-05-22T11:52:38.062Z,30.53
2023-05-22T11:55:05.855Z,30.61
2023-05-22T11:57:32.786Z,30.25
2023-05-22T11:59:59.776Z,29.71
2023-05-22T12:02:26.862Z,30.66
2023-05-22T12:04:57.927Z,30.35
2023-05-22T12:07:26.522Z,30.62
2023-05-22T12:09:56.428Z,30.91
2023-05-22T12:12:23.538Z,30.52
2023-05-22T12:14:50.532Z,30.62
2023-05-22T12:17:18.144Z,30.38
2023-05-22T12:19:47.218Z,31.07
2023-05-22T12:22:14.452Z,31.68
2023-05-22T12:24:42.587Z,31.21
2023-05-22T12:27:12.760Z,31.43
2023-05-22T12:29:40.710Z,31.52
2023-05-22T12:32:11.091Z,31.37
2023-05-22T12:34:46.163Z,31.33
2023-05-22T12:37:25.066Z,30.91
2023-05-22T12:39:55.319Z,31.50
2023-05-22T12:42:22.477Z,31.00
2023-05-22T12:44:53.083Z,30.94
2023-05-22T12:47:19.932Z,31.22
2023-05-22T12:49:46.854Z,29.98
2023-05-22T12:52:13.769Z,29.31
2023-05-22T12:54:41.279Z,29.64
2023-05-22T12:57:08.586Z,29.38
2023-05-22T12:59:37.110Z,29.62
2023-05-22T13:02:07.155Z,28.75
2023-05-22T13:04:34.205Z,29.66
2023-05-22T13:07:01.277Z,30.60
2023-05-22T13:09:28.420Z,29.77
2023-05-22T13:11:55.448Z,30.18
2023-05-22T13:14:22.352Z,30.69
2023-05-22T13:16:49.084Z,30.59
2023-05-22T13:19:16.183Z,31.55
2023-05-22T13:21:43.560Z,31.57
2023-05-22T13:24:10.958Z,30.87
2023-05-22T13:26:37.813Z,31.63
2023-05-22T13:29:04.888Z,31.74
2023-05-22T13:31:37.203Z,30.91
2023-05-22T13:34:04.784Z,30.83
2023-05-22T13:36:31.741Z,31.45
2023-05-22T13:38:58.843Z,31.66
2023-05-22T13:41:25.825Z,31.98
2023-05-22T13:43:52.715Z,31.34
2023-05-22T13:46:21.753Z,31.28
2023-05-22T13:48:48.722Z,31.45
2023-05-22T13:51:15.549Z,30.18
2023-05-22T13:53:42.483Z,30.92
2023-05-22T13:56:09.365Z,30.66
2023-05-22T13:58:36.135Z,31.42
2023-05-22T14:01:02.882Z,31.19
2023-05-22T14:03:30.508Z,31.42
2023-05-22T14:05:57.341Z,31.27
2023-05-22T14:08:24.560Z,31.61
2023-05-22T14:10:51.382Z,31.58
2023-05-22T14:13:18.296Z,31.01
2023-05-22T14:15:47.010Z,31.12
2023-05-22T14:18:16.351Z,31.36
2023-05-22T14:20:43.959Z,31.67
2023-05-22T14:23:11.729Z,31.24
2023-05-22T14:25:42.759Z,31.57
2023-05-22T14:28:11.384Z,31.24
2023-05-22T14:30:38.633Z,31.16
2023-05-22T14:33:06.218Z,31.11
2023-05-22T14:35:33.232Z,30.90
2023-05-22T14:38:00.036Z,31.39
2023-05-22T14:40:27.068Z,30.18
2023-05-22T14:42:54.465Z,30.17
2023-05-22T14:45:21.501Z,30.06
2023-05-22T14:47:48.322Z,30.13
2023-05-22T14:50:19.558Z,29.97
2023-05-22T14:52:48.332Z,29.76
2023-05-22T14:55:15.606Z,29.22
2023-05-22T14:57:42.447Z,29.36
2023-05-22T15:00:10.820Z,28.80
2023-05-22T15:02:37.797Z,28.78
2023-05-22T15:05:05.456Z,28.34
2023-05-22T15:10:02.413Z,28.34
2023-05-22T15:12:29.301Z,28.44
2023-05-22T15:14:56.119Z,28.03
2023-05-22T15:17:22.950Z,28.50
2023-05-22T15:19:49.834Z,29.00
2023-05-22T15:22:19.999Z,29.28
2023-05-22T15:24:48.170Z,29.49
2023-05-22T15:27:15.025Z,29.30
2023-05-22T15:29:42.006Z,29.17
2023-05-22T15:32:09.564Z,28.42
2023-05-22T15:34:36.583Z,27.90
2023-05-22T15:37:03.345Z,28.03
2023-05-22T15:39:30.372Z,27.49
2023-05-22T15:42:05.954Z,27.08
2023-05-22T15:44:33.478Z,27.04
2023-05-22T15:47:00.365Z,26.50
2023-05-22T15:49:30.200Z,26.45
2023-05-22T15:51:58.397Z,26.11
2023-05-22T15:54:25.300Z,25.88
2023-05-22T15:56:52.134Z,26.08
2023-05-22T15:59:18.921Z,26.18
2023-05-22T16:01:45.789Z,26.01
2023-05-22T16:04:12.752Z,26.05
2023-05-22T16:06:39.512Z,26.08
2023-05-22T16:09:06.332Z,25.98
2023-05-22T16:11:34.313Z,26.23
2023-05-22T16:14:01.326Z,26.05
2023-05-22T16:16:28.358Z,25.86
2023-05-22T16:18:55.562Z,25.61
2023-05-22T16:21:22.393Z,25.15
2023-05-22T16:23:49.166Z,25.06
2023-05-22T16:26:15.951Z,24.93
2023-05-22T16:28:42.694Z,24.66
2023-05-22T16:31:09.646Z,24.69
2023-05-22T16:33:37.554Z,24.34
2023-05-22T16:36:06.056Z,24.66
2023-05-22T16:38:33.059Z,24.31
2023-05-22T16:40:59.998Z,24.23
2023-05-22T16:43:26.780Z,24.34
2023-05-22T16:45:53.562Z,24.48
2023-05-22T16:48:20.662Z,24.58
2023-05-22T16:50:47.516Z,24.19
2023-05-22T16:53:17.240Z,23.87
2023-05-22T16:55:44.162Z,24.10
2023-05-22T16:58:12.772Z,24.01
2023-05-22T17:00:40.278Z,23.87
2023-05-22T17:03:08.412Z,23.88
2023-05-22T17:05:37.438Z,23.64
2023-05-22T17:08:04.392Z,23.40
2023-05-22T17:10:31.270Z,23.23
2023-05-22T17:12:58.084Z,23.05
2023-05-22T17:15:24.838Z,23.05
2023-05-22T17:17:51.697Z,23.09
2023-05-22T17:20:18.952Z,22.73
2023-05-22T17:22:45.773Z,22.62
2023-05-22T17:25:13.303Z,22.39
2023-05-22T17:27:40.212Z,22.46
2023-05-22T17:30:07.886Z,22.49
2023-05-22T17:32:35.440Z,22.39
2023-05-22T17:35:02.376Z,22.37
2023-05-22T17:37:29.442Z,22.31
2023-05-22T17:39:56.263Z,22.27
2023-05-22T17:42:23.201Z,21.99
2023-05-22T17:44:50.006Z,22.10
2023-05-22T17:47:18.275Z,22.03
2023-05-22T17:49:45.108Z,21.91
2023-05-22T17:52:13.131Z,21.87
2023-05-22T17:54:40.071Z,21.68
2023-05-22T17:57:09.197Z,21.59
2023-05-22T17:59:38.455Z,21.74
2023-05-22T18:02:07.944Z,21.60
2023-05-22T18:04:34.768Z,21.53
2023-05-22T18:07:01.650Z,21.61
2023-05-22T18:09:28.732Z,21.66
2023-05-22T18:11:55.616Z,21.39
2023-05-22T18:14:22.546Z,21.52
2023-05-22T18:16:49.962Z,21.40
2023-05-22T18:19:16.818Z,21.38
2023-05-22T18:21:43.880Z,21.21
2023-05-22T18:24:10.832Z,21.17
2023-05-22T18:26:37.808Z,21.00
2023-05-22T18:29:04.613Z,20.85
2023-05-22T18:31:31.453Z,20.91
2023-05-22T18:33:58.236Z,20.93
2023-05-22T18:36:25.145Z,20.89
2023-05-22T18:38:51.874Z,20.75
2023-05-22T18:41:18.675Z,20.81
2023-05-22T18:43:45.502Z,20.75
2023-05-22T18:46:12.612Z,20.60
2023-05-22T18:48:39.417Z,20.61
2023-05-22T18:51:06.276Z,20.63
2023-05-22T18:53:33.155Z,20.51
2023-05-22T18:56:01.577Z,20.34
2023-05-22T18:58:28.403Z,20.34
2023-05-22T19:00:55.893Z,20.41
2023-05-22T19:03:22.933Z,20.27
2023-05-22T19:05:49.778Z,20.11
2023-05-22T19:08:16.646Z,20.19
2023-05-22T19:10:43.464Z,20.06
2023-05-22T19:13:10.272Z,19.95
2023-05-22T19:15:38.368Z,19.97
2023-05-22T19:18:05.569Z,19.97
2023-05-22T19:20:32.488Z,19.90
2023-05-22T19:22:59.374Z,19.88
2023-05-22T19:25:26.390Z,19.86
2023-05-22T19:27:53.190Z,19.72
2023-05-22T19:30:21.853Z,19.63
2023-05-22T19:32:55.837Z,19.72
2023-05-22T19:35:22.952Z,19.60
2023-05-22T19:37:50.044Z,19.63
2023-05-22T19:40:16.992Z,19.59
2023-05-22T19:42:43.763Z,19.48
2023-05-22T19:45:10.873Z,19.46
2023-05-22T19:47:37.734Z,19.46
2023-05-22T19:50:04.943Z,19.28
2023-05-22T19:52:31.906Z,19.17
2023-05-22T19:54:58.716Z,19.10
2023-05-22T19:57:27.057Z,19.08
2023-05-22T19:59:54.408Z,19.06
2023-05-22T20:02:21.302Z,18.96
2023-05-22T20:04:48.445Z,18.92
2023-05-22T20:07:15.702Z,18.85
2023-05-22T20:09:42.605Z,18.81
2023-05-22T20:12:10.429Z,18.82
2023-05-22T20:14:37.811Z,18.74
2023-05-22T20:17:05.517Z,18.66
2023-05-22T20:19:34.614Z,18.69
2023-05-22T20:22:02.045Z,18.59
2023-05-22T20:24:29.762Z,18.69
2023-05-22T20:26:56.968Z,18.69
2023-05-22T20:29:23.973Z,18.68
2023-05-22T20:31:54.621Z,18.67
2023-05-22T20:34:22.396Z,18.58
2023-05-22T20:36:49.161Z,18.59
2023-05-22T20:39:18.109Z,18.27
2023-05-22T20:41:46.346Z,18.26
2023-05-22T20:44:13.295Z,18.22
2023-05-22T20:46:40.209Z,18.25
2023-05-22T20:49:06.995Z,18.39
2023-05-22T20:51:34.181Z,18.33
2023-05-22T20:54:01.046Z,18.30
2023-05-22T20:56:27.900Z,18.25
2023-05-22T20:58:54.897Z,18.18
2023-05-22T21:01:22.508Z,18.29
2023-05-22T21:03:52.766Z,18.21
2023-05-22T21:06:20.146Z,18.15
2023-05-22T21:08:47.184Z,18.11
2023-05-22T21:11:14.239Z,17.99
2023-05-22T21:13:40.961Z,18.07
2023-05-22T21:16:07.752Z,17.91
2023-05-22T21:18:34.684Z,17.76
2023-05-22T21:21:01.746Z,17.78
2023-05-22T21:23:28.522Z,17.74
2023-05-22T21:25:55.288Z,17.77
2023-05-22T21:28:22.010Z,17.64
2023-05-22T21:30:48.712Z,17.53
2023-05-22T21:33:15.883Z,17.52
2023-05-22T21:35:42.782Z,17.50
2023-05-22T21:38:09.664Z,17.44
2023-05-22T21:40:36.486Z,17.37
2023-05-22T21:43:03.209Z,17.35
2023-05-22T21:45:31.055Z,17.31
2023-05-22T21:47:58.149Z,17.33
2023-05-22T21:50:25.016Z,17.31
2023-05-22T21:52:51.826Z,17.32
2023-05-22T21:55:18.679Z,17.25
2023-05-22T21:57:45.876Z,17.17
2023-05-22T22:00:13.462Z,17.34
2023-05-22T22:02:40.633Z,17.30
2023-05-22T22:05:07.898Z,17.19
2023-05-22T22:07:34.780Z,17.20
2023-05-22T22:10:01.510Z,17.17
2023-05-22T22:12:28.320Z,17.10
2023-05-22T22:14:55.103Z,17.08
2023-05-22T22:17:23.907Z,17.13
2023-05-22T22:19:53.599Z,17.25
2023-05-22T22:22:22.533Z,17.37
2023-05-22T22:24:49.401Z,17.28
2023-05-22T22:27:16.412Z,17.31
2023-05-22T22:29:43.769Z,17.21
2023-05-22T22:32:10.563Z,17.31
2023-05-22T22:34:37.571Z,17.32
2023-05-22T22:37:07.600Z,17.26
2023-05-22T22:39:34.417Z,17.20
2023-05-22T22:42:04.304Z,17.20
2023-05-22T22:44:31.827Z,17.15
2023-05-22T22:46:58.572Z,17.11
2023-05-22T22:49:25.303Z,17.05
2023-05-22T22:51:52.480Z,16.96
2023-05-22T22:54:19.361Z,17.05
2023-05-22T22:56:47.137Z,17.05
2023-05-22T22:59:14.056Z,17.14
2023-05-22T23:01:40.966Z,17.21
2023-05-22T23:04:08.010Z,17.10
2023-05-22T23:06:35.263Z,17.17
2023-05-22T23:09:03.740Z,17.19
2023-05-22T23:11:37.384Z,16.77
2023-05-22T23:14:08.483Z,16.76
2023-05-22T23:16:36.776Z,16.89
2023-05-22T23:19:04.807Z,16.86
2023-05-22T23:21:32.223Z,16.79
2023-05-22T23:24:01.453Z,16.84
2023-05-22T23:26:28.819Z,16.88
2023-05-22T23:28:55.611Z,16.87
2023-05-22T23:31:26.167Z,16.77
2023-05-22T23:33:53.358Z,16.79
2023-05-22T23:36:20.521Z,16.81
2023-05-22T23:38:47.969Z,16.81
2023-05-22T23:41:18.568Z,16.75
2023-05-22T23:43:46.190Z,16.81
2023-05-22T23:46:13.986Z,16.67
2023-05-22T23:48:41.858Z,16.72
2023-05-22T23:51:14.308Z,16.74
2023-05-22T23:53:42.009Z,16.79
2023-05-22T23:56:09.389Z,16.79
2023-05-22T23:58:37.773Z,16.71
